KEVW/EVW METAR and TAF weather

Enter ICAO airport designator
Station Type Date Time Source
KEVW METAR 2021/07/29 00:53 UTC NOAA

KEVW 290053Z AUTO 35010KT 10SM OVC110 18/16 A3041 RMK AO2 SLP210 T01780156


Station Type Date Time Source
KEVW Decoded METAR 2021/07/29 00:53 UTC NOAA

EVANSTON-UINTA COUNTY FIELD, WY, United States (KEVW) 41-16N 111-02W 2177M
Jul 28, 2021 - 08:53 PM EDT / 2021.07.29 0053 UTC
Wind: from the N (350 degrees) at 12 MPH (10 KT):0
Visibility: 10 mile(s):0
Sky conditions: overcast
Temperature: 64.0 F (17.8 C)
Dew Point: 60.1 F (15.6 C)
Relative Humidity: 86%
Pressure (altimeter): 30.41 in. Hg (1029 hPa)
ob: KEVW 290053Z AUTO 35010KT 10SM OVC110 18/16 A3041 RMK AO2 SLP210 T01780156
cycle: 1

Station Type Date Time Source
KEVW TAF 2021/07/28 22:06 UTC NOAA

TAF KEVW 282200Z 2822/2918 33010KT P6SM VCSH BKN070 OVC100
TEMPO 2822/2824 5SM RA
FM290300 08008KT P6SM BKN080

Example: see airport list